Main page
METAR-TAF:

METAR-TAF

Airports :

Presidente Castro Pinto International Airport

João Pessoa, Paraíba, Brazil

latitude: 07-06S, longitude: 034-52W, elevation: 7 m

Current weather observation

The report was made 38 minutes ago, at 16:00 UTC
Wind 12 kt from the East/Southeast
Temperature 31°C
Humidity 75%
Pressure 1010 hPa
Visibility 10 km or more
Broken clouds at a height of 2500 ft

METAR: SBJP 211600Z 11012KT 9999 BKN025 31/26 Q1010

Time: 13:38 (16:38 UTC)

Forecast

The report was made 6 hours and 38 minutes ago, at 10:00 UTC
Forecast valid from 21 at 12 UTC to 22 at 12 UTC
Wind 8 kt from the South/Southeast
Visibility 10 km or more
Scattered clouds at a height of 2500 ft

TAF: SBJP 211000Z 2112/2212 16008KT 9999 SCT025 TX32/2116Z TN25/2208Z RMK PED

Weather observations and forecasts of more than 4000 airports (METAR and TAF reports).

The available stations are represented by yellow and red dots on the map.

Hover mouse over dot to see the name of the station.

Then click to see weather observations and forecasts.

To change the map : click on the green buttons with a black cross to zoom in, on the green button with a dash to zoom out, or on the green arrows for adjacent maps.


METAR-TAF: